sensor_id;sensor_type;location;lat;lon;timestamp;temperature;humidity
12971;DHT22;6550;48.650;8.774;2022-12-18T00:01:31;-6.60;99.90
12971;DHT22;6550;48.650;8.774;2022-12-18T00:04:05;-6.70;99.90
12971;DHT22;6550;48.650;8.774;2022-12-18T00:06:33;-6.70;99.90
12971;DHT22;6550;48.650;8.774;2022-12-18T00:09:02;-6.60;99.90
12971;DHT22;6550;48.650;8.774;2022-12-18T00:11:30;-6.50;99.90
12971;DHT22;6550;48.650;8.774;2022-12-18T00:14:00;-6.70;99.90
12971;DHT22;6550;48.650;8.774;2022-12-18T00:16:31;-6.70;99.90
12971;DHT22;6550;48.650;8.774;2022-12-18T00:19:00;-6.70;99.90
12971;DHT22;6550;48.650;8.774;2022-12-18T00:21:28;-7.60;99.90
12971;DHT22;6550;48.650;8.774;2022-12-18T00:23:58;-6.80;99.90
12971;DHT22;6550;48.650;8.774;2022-12-18T00:26:30;-6.80;99.90
12971;DHT22;6550;48.650;8.774;2022-12-18T00:29:01;-6.80;99.90
12971;DHT22;6550;48.650;8.774;2022-12-18T00:31:31;-6.90;99.90
12971;DHT22;6550;48.650;8.774;2022-12-18T00:34:03;-6.90;99.90
12971;DHT22;6550;48.650;8.774;2022-12-18T00:36:32;-6.90;99.90
12971;DHT22;6550;48.650;8.774;2022-12-18T00:39:02;-7.00;99.90
12971;DHT22;6550;48.650;8.774;2022-12-18T00:41:29;-7.00;99.90
12971;DHT22;6550;48.650;8.774;2022-12-18T00:44:16;-7.10;99.90
12971;DHT22;6550;48.650;8.774;2022-12-18T00:46:44;-7.10;99.90
12971;DHT22;6550;48.650;8.774;2022-12-18T00:49:11;-7.10;99.90
12971;DHT22;6550;48.650;8.774;2022-12-18T00:51:38;-7.10;99.90
12971;DHT22;6550;48.650;8.774;2022-12-18T00:54:07;-7.10;99.90
12971;DHT22;6550;48.650;8.774;2022-12-18T00:56:40;-7.20;99.90
12971;DHT22;6550;48.650;8.774;2022-12-18T00:59:17;-7.10;99.90
12971;DHT22;6550;48.650;8.774;2022-12-18T01:01:45;-7.30;99.90
12971;DHT22;6550;48.650;8.774;2022-12-18T01:04:12;-7.20;99.90
12971;DHT22;6550;48.650;8.774;2022-12-18T01:06:40;-7.20;99.90
12971;DHT22;6550;48.650;8.774;2022-12-18T01:09:06;-7.20;99.90
12971;DHT22;6550;48.650;8.774;2022-12-18T01:11:33;-7.30;99.90
12971;DHT22;6550;48.650;8.774;2022-12-18T01:14:00;-7.30;99.90
12971;DHT22;6550;48.650;8.774;2022-12-18T01:16:27;-7.20;99.90
12971;DHT22;6550;48.650;8.774;2022-12-18T01:18:58;-7.30;99.90
12971;DHT22;6550;48.650;8.774;2022-12-18T01:21:25;-7.30;99.90
12971;DHT22;6550;48.650;8.774;2022-12-18T01:23:54;-7.30;99.90
12971;DHT22;6550;48.650;8.774;2022-12-18T01:26:21;-7.40;99.90
12971;DHT22;6550;48.650;8.774;2022-12-18T01:28:48;-7.40;99.90
12971;DHT22;6550;48.650;8.774;2022-12-18T01:33:47;-7.40;99.90
12971;DHT22;6550;48.650;8.774;2022-12-18T01:36:19;-7.50;99.90
12971;DHT22;6550;48.650;8.774;2022-12-18T01:38:49;-7.50;99.90
12971;DHT22;6550;48.650;8.774;2022-12-18T01:41:22;-7.50;99.90
12971;DHT22;6550;48.650;8.774;2022-12-18T01:46:19;-7.40;99.90
12971;DHT22;6550;48.650;8.774;2022-12-18T01:48:48;-7.50;99.90
12971;DHT22;6550;48.650;8.774;2022-12-18T01:51:16;-7.50;99.90
12971;DHT22;6550;48.650;8.774;2022-12-18T01:53:44;-7.50;99.90
12971;DHT22;6550;48.650;8.774;2022-12-18T01:56:18;-7.50;99.90
12971;DHT22;6550;48.650;8.774;2022-12-18T01:59:15;-7.50;99.90
12971;DHT22;6550;48.650;8.774;2022-12-18T02:01:42;-7.50;99.90
12971;DHT22;6550;48.650;8.774;2022-12-18T02:04:24;-7.50;99.90
12971;DHT22;6550;48.650;8.774;2022-12-18T02:07:20;-7.50;99.90
12971;DHT22;6550;48.650;8.774;2022-12-18T02:12:52;-7.40;99.90
12971;DHT22;6550;48.650;8.774;2022-12-18T02:15:30;-7.40;99.90
12971;DHT22;6550;48.650;8.774;2022-12-18T02:18:14;-7.40;99.90
12971;DHT22;6550;48.650;8.774;2022-12-18T02:20:49;-7.40;99.90
12971;DHT22;6550;48.650;8.774;2022-12-18T02:23:36;-7.40;99.90
12971;DHT22;6550;48.650;8.774;2022-12-18T02:28:44;-7.50;99.90
12971;DHT22;6550;48.650;8.774;2022-12-18T02:31:16;-7.50;99.90
12971;DHT22;6550;48.650;8.774;2022-12-18T02:33:49;-7.50;99.90
12971;DHT22;6550;48.650;8.774;2022-12-18T02:36:18;-7.50;99.90
12971;DHT22;6550;48.650;8.774;2022-12-18T02:38:47;-7.50;99.90
12971;DHT22;6550;48.650;8.774;2022-12-18T02:41:14;-7.50;99.90
12971;DHT22;6550;48.650;8.774;2022-12-18T02:43:49;-7.50;99.90
12971;DHT22;6550;48.650;8.774;2022-12-18T02:46:33;-7.50;99.90
12971;DHT22;6550;48.650;8.774;2022-12-18T02:49:31;-7.50;99.90
12971;DHT22;6550;48.650;8.774;2022-12-18T02:52:01;-7.60;99.90
12971;DHT22;6550;48.650;8.774;2022-12-18T03:00:04;-7.50;99.90
12971;DHT22;6550;48.650;8.774;2022-12-18T03:05:24;-7.50;99.90
12971;DHT22;6550;48.650;8.774;2022-12-18T03:08:14;-7.60;99.90
12971;DHT22;6550;48.650;8.774;2022-12-18T03:11:03;-7.60;99.90
12971;DHT22;6550;48.650;8.774;2022-12-18T03:13:39;-7.60;99.90
12971;DHT22;6550;48.650;8.774;2022-12-18T03:16:14;-7.60;99.90
12971;DHT22;6550;48.650;8.774;2022-12-18T03:18:56;-7.60;99.90
12971;DHT22;6550;48.650;8.774;2022-12-18T03:21:35;-7.60;99.90
12971;DHT22;6550;48.650;8.774;2022-12-18T03:24:07;-7.60;99.90
12971;DHT22;6550;48.650;8.774;2022-12-18T03:26:36;-7.60;99.90
12971;DHT22;6550;48.650;8.774;2022-12-18T03:29:16;-7.60;99.90
12971;DHT22;6550;48.650;8.774;2022-12-18T03:31:49;-7.60;99.90
12971;DHT22;6550;48.650;8.774;2022-12-18T03:34:29;-7.60;99.90
12971;DHT22;6550;48.650;8.774;2022-12-18T03:36:57;-7.60;99.90
12971;DHT22;6550;48.650;8.774;2022-12-18T03:39:24;-7.60;99.90
12971;DHT22;6550;48.650;8.774;2022-12-18T03:41:58;-7.60;99.90
12971;DHT22;6550;48.650;8.774;2022-12-18T03:44:28;-7.70;99.90
12971;DHT22;6550;48.650;8.774;2022-12-18T03:52:40;-7.80;99.90
12971;DHT22;6550;48.650;8.774;2022-12-18T03:55:12;-7.90;99.90
12971;DHT22;6550;48.650;8.774;2022-12-18T03:57:39;-7.90;99.90
12971;DHT22;6550;48.650;8.774;2022-12-18T04:00:12;-7.90;99.90
12971;DHT22;6550;48.650;8.774;2022-12-18T04:02:46;-7.80;99.90
12971;DHT22;6550;48.650;8.774;2022-12-18T04:05:15;-7.90;99.90
12971;DHT22;6550;48.650;8.774;2022-12-18T04:07:47;-7.90;99.90
12971;DHT22;6550;48.650;8.774;2022-12-18T04:10:15;-7.90;99.90
12971;DHT22;6550;48.650;8.774;2022-12-18T04:12:46;-7.90;99.90
12971;DHT22;6550;48.650;8.774;2022-12-18T04:15:13;-7.90;99.90
12971;DHT22;6550;48.650;8.774;2022-12-18T04:17:47;-7.90;99.90
12971;DHT22;6550;48.650;8.774;2022-12-18T04:20:17;-7.90;99.90
12971;DHT22;6550;48.650;8.774;2022-12-18T04:22:49;-7.90;99.80
12971;DHT22;6550;48.650;8.774;2022-12-18T04:25:16;-7.80;99.90
12971;DHT22;6550;48.650;8.774;2022-12-18T04:27:45;-7.80;99.90
12971;DHT22;6550;48.650;8.774;2022-12-18T04:30:12;-7.80;99.90
12971;DHT22;6550;48.650;8.774;2022-12-18T04:32:41;-7.70;99.90
12971;DHT22;6550;48.650;8.774;2022-12-18T04:35:15;-7.70;99.90
12971;DHT22;6550;48.650;8.774;2022-12-18T04:37:44;-7.70;99.90
12971;DHT22;6550;48.650;8.774;2022-12-18T04:40:11;-7.70;99.90
12971;DHT22;6550;48.650;8.774;2022-12-18T04:42:40;-7.70;99.90
12971;DHT22;6550;48.650;8.774;2022-12-18T04:45:08;-7.70;99.90
12971;DHT22;6550;48.650;8.774;2022-12-18T04:47:34;-7.60;99.90
12971;DHT22;6550;48.650;8.774;2022-12-18T04:50:01;-7.60;99.90
12971;DHT22;6550;48.650;8.774;2022-12-18T04:52:28;-7.60;99.90
12971;DHT22;6550;48.650;8.774;2022-12-18T04:54:54;-7.50;99.90
12971;DHT22;6550;48.650;8.774;2022-12-18T04:57:23;-7.60;99.90
12971;DHT22;6550;48.650;8.774;2022-12-18T04:59:50;-7.50;99.90
12971;DHT22;6550;48.650;8.774;2022-12-18T05:02:17;-7.50;99.90
12971;DHT22;6550;48.650;8.774;2022-12-18T05:04:44;-7.50;99.90
12971;DHT22;6550;48.650;8.774;2022-12-18T05:07:15;-7.40;99.90
12971;DHT22;6550;48.650;8.774;2022-12-18T05:09:44;-7.40;99.90
12971;DHT22;6550;48.650;8.774;2022-12-18T05:12:11;-7.40;99.90
12971;DHT22;6550;48.650;8.774;2022-12-18T05:14:40;-7.40;99.90
12971;DHT22;6550;48.650;8.774;2022-12-18T05:17:09;-7.30;99.90
12971;DHT22;6550;48.650;8.774;2022-12-18T05:19:37;-7.30;99.90
12971;DHT22;6550;48.650;8.774;2022-12-18T05:22:04;-7.30;99.90
12971;DHT22;6550;48.650;8.774;2022-12-18T05:24:33;-7.30;99.90
12971;DHT22;6550;48.650;8.774;2022-12-18T05:27:02;-7.20;99.90
12971;DHT22;6550;48.650;8.774;2022-12-18T05:29:28;-7.20;99.90
12971;DHT22;6550;48.650;8.774;2022-12-18T05:31:55;-7.20;99.90
12971;DHT22;6550;48.650;8.774;2022-12-18T05:34:24;-7.20;99.90
12971;DHT22;6550;48.650;8.774;2022-12-18T05:36:53;-7.10;99.90
12971;DHT22;6550;48.650;8.774;2022-12-18T05:39:20;-7.10;99.90
12971;DHT22;6550;48.650;8.774;2022-12-18T05:41:46;-7.10;99.90
12971;DHT22;6550;48.650;8.774;2022-12-18T05:44:16;-7.10;99.90
12971;DHT22;6550;48.650;8.774;2022-12-18T05:46:42;-7.00;99.90
12971;DHT22;6550;48.650;8.774;2022-12-18T05:49:14;-7.00;99.90
12971;DHT22;6550;48.650;8.774;2022-12-18T05:51:41;-7.00;99.90
12971;DHT22;6550;48.650;8.774;2022-12-18T05:54:10;-7.00;99.90
12971;DHT22;6550;48.650;8.774;2022-12-18T05:56:36;-6.90;99.90
12971;DHT22;6550;48.650;8.774;2022-12-18T05:59:12;-6.90;99.90
12971;DHT22;6550;48.650;8.774;2022-12-18T06:01:39;-6.90;99.90
12971;DHT22;6550;48.650;8.774;2022-12-18T06:04:06;-6.80;99.90
12971;DHT22;6550;48.650;8.774;2022-12-18T06:06:32;-6.80;99.90
12971;DHT22;6550;48.650;8.774;2022-12-18T06:08:59;-6.80;99.90
12971;DHT22;6550;48.650;8.774;2022-12-18T06:11:36;-6.80;99.90
12971;DHT22;6550;48.650;8.774;2022-12-18T06:14:04;-6.80;99.90
12971;DHT22;6550;48.650;8.774;2022-12-18T06:16:33;-6.70;99.90
12971;DHT22;6550;48.650;8.774;2022-12-18T06:19:02;-6.70;99.90
12971;DHT22;6550;48.650;8.774;2022-12-18T06:21:32;-6.70;99.90
12971;DHT22;6550;48.650;8.774;2022-12-18T06:24:01;-6.70;99.90
12971;DHT22;6550;48.650;8.774;2022-12-18T06:26:28;-6.60;99.90
12971;DHT22;6550;48.650;8.774;2022-12-18T06:28:55;-5.10;99.90
12971;DHT22;6550;48.650;8.774;2022-12-18T06:31:22;-6.60;99.90
12971;DHT22;6550;48.650;8.774;2022-12-18T06:33:49;-6.50;99.90
12971;DHT22;6550;48.650;8.774;2022-12-18T06:36:15;-6.50;99.90
12971;DHT22;6550;48.650;8.774;2022-12-18T06:38:47;-6.50;99.90
12971;DHT22;6550;48.650;8.774;2022-12-18T06:41:18;-6.50;99.90
12971;DHT22;6550;48.650;8.774;2022-12-18T06:43:45;-6.40;99.90
12971;DHT22;6550;48.650;8.774;2022-12-18T06:46:12;-6.40;99.90
12971;DHT22;6550;48.650;8.774;2022-12-18T06:48:45;-6.40;99.90
12971;DHT22;6550;48.650;8.774;2022-12-18T06:51:16;-6.40;99.90
12971;DHT22;6550;48.650;8.774;2022-12-18T06:53:46;-6.40;99.90
12971;DHT22;6550;48.650;8.774;2022-12-18T06:56:13;-6.40;99.90
12971;DHT22;6550;48.650;8.774;2022-12-18T06:58:39;-6.40;99.90
12971;DHT22;6550;48.650;8.774;2022-12-18T07:01:10;-6.40;99.90
12971;DHT22;6550;48.650;8.774;2022-12-18T07:03:38;-6.40;99.90
12971;DHT22;6550;48.650;8.774;2022-12-18T07:06:16;-6.50;99.90
12971;DHT22;6550;48.650;8.774;2022-12-18T07:08:44;-6.50;99.90
12971;DHT22;6550;48.650;8.774;2022-12-18T07:11:11;-6.50;99.90
12971;DHT22;6550;48.650;8.774;2022-12-18T07:13:41;-6.50;99.90
12971;DHT22;6550;48.650;8.774;2022-12-18T07:16:11;-6.50;99.90
12971;DHT22;6550;48.650;8.774;2022-12-18T07:18:48;-6.50;99.90
12971;DHT22;6550;48.650;8.774;2022-12-18T07:21:18;-6.50;99.90
12971;DHT22;6550;48.650;8.774;2022-12-18T07:23:45;-6.40;99.90
12971;DHT22;6550;48.650;8.774;2022-12-18T07:26:16;-6.40;99.90
12971;DHT22;6550;48.650;8.774;2022-12-18T07:28:46;-6.40;99.90
12971;DHT22;6550;48.650;8.774;2022-12-18T07:31:21;-6.40;99.90
12971;DHT22;6550;48.650;8.774;2022-12-18T07:33:49;-6.30;99.90
12971;DHT22;6550;48.650;8.774;2022-12-18T07:36:19;-6.30;99.90
12971;DHT22;6550;48.650;8.774;2022-12-18T07:38:52;-6.30;99.90
12971;DHT22;6550;48.650;8.774;2022-12-18T07:41:23;-6.30;99.90
12971;DHT22;6550;48.650;8.774;2022-12-18T07:43:50;-6.30;99.90
12971;DHT22;6550;48.650;8.774;2022-12-18T07:46:17;-6.30;99.90
12971;DHT22;6550;48.650;8.774;2022-12-18T07:48:45;-6.20;99.90
12971;DHT22;6550;48.650;8.774;2022-12-18T07:51:16;-6.20;99.90
12971;DHT22;6550;48.650;8.774;2022-12-18T07:53:46;-6.20;99.90
12971;DHT22;6550;48.650;8.774;2022-12-18T07:56:18;-6.20;99.90
12971;DHT22;6550;48.650;8.774;2022-12-18T07:58:57;-6.10;99.90
12971;DHT22;6550;48.650;8.774;2022-12-18T08:01:24;-6.10;99.90
12971;DHT22;6550;48.650;8.774;2022-12-18T08:03:53;-6.00;99.90
12971;DHT22;6550;48.650;8.774;2022-12-18T08:06:20;-6.00;99.90
12971;DHT22;6550;48.650;8.774;2022-12-18T08:08:51;-6.00;99.90
12971;DHT22;6550;48.650;8.774;2022-12-18T08:11:18;-6.00;99.90
12971;DHT22;6550;48.650;8.774;2022-12-18T08:13:47;-4.90;99.90
12971;DHT22;6550;48.650;8.774;2022-12-18T08:16:18;-5.90;99.90
12971;DHT22;6550;48.650;8.774;2022-12-18T08:18:46;-5.80;99.90
12971;DHT22;6550;48.650;8.774;2022-12-18T08:21:22;-5.70;99.90
12971;DHT22;6550;48.650;8.774;2022-12-18T08:23:53;-5.70;99.90
12971;DHT22;6550;48.650;8.774;2022-12-18T08:26:20;-5.70;99.90
12971;DHT22;6550;48.650;8.774;2022-12-18T08:28:48;-5.60;99.90
12971;DHT22;6550;48.650;8.774;2022-12-18T08:31:17;-5.60;99.90
12971;DHT22;6550;48.650;8.774;2022-12-18T08:33:45;-5.50;99.90
12971;DHT22;6550;48.650;8.774;2022-12-18T08:36:12;-5.40;99.90
12971;DHT22;6550;48.650;8.774;2022-12-18T08:38:39;-5.40;99.90
12971;DHT22;6550;48.650;8.774;2022-12-18T08:41:14;-5.40;99.90
12971;DHT22;6550;48.650;8.774;2022-12-18T08:43:41;-5.30;99.90
12971;DHT22;6550;48.650;8.774;2022-12-18T08:46:34;-5.30;99.90
12971;DHT22;6550;48.650;8.774;2022-12-18T08:49:01;-5.20;99.90
12971;DHT22;6550;48.650;8.774;2022-12-18T08:51:28;-5.10;99.90
12971;DHT22;6550;48.650;8.774;2022-12-18T08:53:57;-5.00;99.90
12971;DHT22;6550;48.650;8.774;2022-12-18T08:56:24;-5.00;99.90
12971;DHT22;6550;48.650;8.774;2022-12-18T08:58:52;-4.80;99.90
12971;DHT22;6550;48.650;8.774;2022-12-18T09:01:19;-4.60;99.90
12971;DHT22;6550;48.650;8.774;2022-12-18T09:03:47;-4.50;99.90
12971;DHT22;6550;48.650;8.774;2022-12-18T09:06:21;-4.40;99.90
12971;DHT22;6550;48.650;8.774;2022-12-18T09:08:50;-4.30;99.90
12971;DHT22;6550;48.650;8.774;2022-12-18T09:13:49;-4.20;99.90
12971;DHT22;6550;48.650;8.774;2022-12-18T09:16:17;-4.10;99.90
12971;DHT22;6550;48.650;8.774;2022-12-18T09:18:43;-4.10;99.90
12971;DHT22;6550;48.650;8.774;2022-12-18T09:21:19;-4.00;99.90
12971;DHT22;6550;48.650;8.774;2022-12-18T09:23:52;-3.90;99.90
12971;DHT22;6550;48.650;8.774;2022-12-18T09:26:21;-3.90;99.90
12971;DHT22;6550;48.650;8.774;2022-12-18T09:28:48;-3.80;99.90
12971;DHT22;6550;48.650;8.774;2022-12-18T09:31:16;-3.70;99.90
12971;DHT22;6550;48.650;8.774;2022-12-18T09:33:43;-3.70;99.90
12971;DHT22;6550;48.650;8.774;2022-12-18T09:36:13;-3.70;99.90
12971;DHT22;6550;48.650;8.774;2022-12-18T09:38:41;-3.60;99.90
12971;DHT22;6550;48.650;8.774;2022-12-18T09:44:03;-3.50;99.90
12971;DHT22;6550;48.650;8.774;2022-12-18T09:46:38;-3.50;99.90
12971;DHT22;6550;48.650;8.774;2022-12-18T09:49:14;-3.50;99.90
12971;DHT22;6550;48.650;8.774;2022-12-18T09:51:47;-3.40;99.90
12971;DHT22;6550;48.650;8.774;2022-12-18T09:54:46;-3.40;99.90
12971;DHT22;6550;48.650;8.774;2022-12-18T09:57:23;-3.30;99.90
12971;DHT22;6550;48.650;8.774;2022-12-18T09:59:59;-3.30;99.90
12971;DHT22;6550;48.650;8.774;2022-12-18T10:02:31;-3.30;99.90
12971;DHT22;6550;48.650;8.774;2022-12-18T10:05:05;-3.20;99.90
12971;DHT22;6550;48.650;8.774;2022-12-18T10:10:26;-3.10;99.90
12971;DHT22;6550;48.650;8.774;2022-12-18T10:18:51;-3.00;99.90
12971;DHT22;6550;48.650;8.774;2022-12-18T10:21:48;-2.90;99.90
12971;DHT22;6550;48.650;8.774;2022-12-18T10:24:27;-2.80;99.90
12971;DHT22;6550;48.650;8.774;2022-12-18T10:27:17;-2.80;99.90
12971;DHT22;6550;48.650;8.774;2022-12-18T10:29:45;-2.70;99.90
12971;DHT22;6550;48.650;8.774;2022-12-18T10:32:27;-2.60;99.90
12971;DHT22;6550;48.650;8.774;2022-12-18T10:34:56;-2.60;99.90
12971;DHT22;6550;48.650;8.774;2022-12-18T10:37:28;-2.50;99.90
12971;DHT22;6550;48.650;8.774;2022-12-18T10:42:34;-2.50;99.90
12971;DHT22;6550;48.650;8.774;2022-12-18T10:45:07;-2.40;99.90
12971;DHT22;6550;48.650;8.774;2022-12-18T10:47:35;-2.40;99.90
12971;DHT22;6550;48.650;8.774;2022-12-18T10:50:02;-2.30;99.90
12971;DHT22;6550;48.650;8.774;2022-12-18T10:52:32;-2.30;99.90
12971;DHT22;6550;48.650;8.774;2022-12-18T10:55:02;-2.30;99.90
12971;DHT22;6550;48.650;8.774;2022-12-18T10:57:36;-2.20;99.90
12971;DHT22;6550;48.650;8.774;2022-12-18T11:00:25;-2.10;99.90
12971;DHT22;6550;48.650;8.774;2022-12-18T11:02:54;-2.10;99.90
12971;DHT22;6550;48.650;8.774;2022-12-18T11:05:30;-1.90;99.90
12971;DHT22;6550;48.650;8.774;2022-12-18T11:07:58;-1.70;99.90
12971;DHT22;6550;48.650;8.774;2022-12-18T11:13:28;-1.70;99.90
12971;DHT22;6550;48.650;8.774;2022-12-18T11:15:58;-1.70;99.90
12971;DHT22;6550;48.650;8.774;2022-12-18T11:18:27;-1.70;99.90
12971;DHT22;6550;48.650;8.774;2022-12-18T11:21:06;-1.70;99.90
12971;DHT22;6550;48.650;8.774;2022-12-18T11:23:47;-1.70;99.90
12971;DHT22;6550;48.650;8.774;2022-12-18T11:26:16;-1.70;99.90
12971;DHT22;6550;48.650;8.774;2022-12-18T11:31:24;-1.70;99.90
12971;DHT22;6550;48.650;8.774;2022-12-18T11:36:57;-1.60;99.90
12971;DHT22;6550;48.650;8.774;2022-12-18T11:39:37;-1.60;99.90
12971;DHT22;6550;48.650;8.774;2022-12-18T11:45:23;-1.50;99.90
12971;DHT22;6550;48.650;8.774;2022-12-18T11:48:04;-1.50;99.90
12971;DHT22;6550;48.650;8.774;2022-12-18T11:53:07;-1.40;99.90
12971;DHT22;6550;48.650;8.774;2022-12-18T11:55:49;-1.30;99.90
12971;DHT22;6550;48.650;8.774;2022-12-18T11:58:40;-1.20;99.90
12971;DHT22;6550;48.650;8.774;2022-12-18T12:01:28;-1.20;99.90
12971;DHT22;6550;48.650;8.774;2022-12-18T12:09:55;-1.10;99.90
12971;DHT22;6550;48.650;8.774;2022-12-18T12:21:13;-0.90;99.90
12971;DHT22;6550;48.650;8.774;2022-12-18T12:32:22;-0.80;99.90
12971;DHT22;6550;48.650;8.774;2022-12-18T12:35:21;-0.80;99.90
12971;DHT22;6550;48.650;8.774;2022-12-18T12:38:19;-0.70;99.90
12971;DHT22;6550;48.650;8.774;2022-12-18T12:41:08;-0.70;99.90
12971;DHT22;6550;48.650;8.774;2022-12-18T12:43:58;-0.70;99.90
12971;DHT22;6550;48.650;8.774;2022-12-18T12:46:31;-0.60;99.90
12971;DHT22;6550;48.650;8.774;2022-12-18T12:49:02;-0.60;99.90
12971;DHT22;6550;48.650;8.774;2022-12-18T12:51:39;-0.60;99.90
12971;DHT22;6550;48.650;8.774;2022-12-18T12:54:17;-0.50;99.90
12971;DHT22;6550;48.650;8.774;2022-12-18T12:57:02;-0.60;99.90
12971;DHT22;6550;48.650;8.774;2022-12-18T13:00:23;-0.50;99.90
12971;DHT22;6550;48.650;8.774;2022-12-18T13:08:01;-0.50;99.90
12971;DHT22;6550;48.650;8.774;2022-12-18T13:10:40;-0.60;99.90
12971;DHT22;6550;48.650;8.774;2022-12-18T13:13:10;-0.50;99.90
12971;DHT22;6550;48.650;8.774;2022-12-18T13:15:42;-0.50;99.90
12971;DHT22;6550;48.650;8.774;2022-12-18T13:21:09;-0.50;99.90
12971;DHT22;6550;48.650;8.774;2022-12-18T13:23:40;-0.50;99.90
12971;DHT22;6550;48.650;8.774;2022-12-18T13:34:16;-0.50;99.90
12971;DHT22;6550;48.650;8.774;2022-12-18T13:36:55;-0.40;99.90
12971;DHT22;6550;48.650;8.774;2022-12-18T13:39:32;-0.40;99.90
12971;DHT22;6550;48.650;8.774;2022-12-18T13:44:37;-0.50;99.90
12971;DHT22;6550;48.650;8.774;2022-12-18T13:47:33;-0.50;99.90
12971;DHT22;6550;48.650;8.774;2022-12-18T13:50:02;-0.50;99.90
12971;DHT22;6550;48.650;8.774;2022-12-18T13:52:37;-0.50;99.90
12971;DHT22;6550;48.650;8.774;2022-12-18T13:55:14;-0.50;99.90
12971;DHT22;6550;48.650;8.774;2022-12-18T13:57:42;-0.50;99.90
12971;DHT22;6550;48.650;8.774;2022-12-18T14:02:56;-0.50;99.90
12971;DHT22;6550;48.650;8.774;2022-12-18T14:05:28;-0.50;99.90
12971;DHT22;6550;48.650;8.774;2022-12-18T14:08:00;-0.50;99.90
12971;DHT22;6550;48.650;8.774;2022-12-18T14:10:28;-0.50;99.90
12971;DHT22;6550;48.650;8.774;2022-12-18T14:13:32;-0.50;99.90
12971;DHT22;6550;48.650;8.774;2022-12-18T14:16:04;-0.50;99.90
12971;DHT22;6550;48.650;8.774;2022-12-18T14:18:39;-0.50;99.90
12971;DHT22;6550;48.650;8.774;2022-12-18T14:21:21;-0.50;99.90
12971;DHT22;6550;48.650;8.774;2022-12-18T14:24:18;-0.50;99.90
12971;DHT22;6550;48.650;8.774;2022-12-18T14:26:46;-0.50;99.90
12971;DHT22;6550;48.650;8.774;2022-12-18T14:32:14;-0.60;99.90
12971;DHT22;6550;48.650;8.774;2022-12-18T14:34:53;-0.60;99.90
12971;DHT22;6550;48.650;8.774;2022-12-18T14:37:25;-0.60;99.90
12971;DHT22;6550;48.650;8.774;2022-12-18T14:39:57;-0.60;99.90
12971;DHT22;6550;48.650;8.774;2022-12-18T14:42:36;-0.70;99.90
12971;DHT22;6550;48.650;8.774;2022-12-18T14:48:25;-0.70;99.90
12971;DHT22;6550;48.650;8.774;2022-12-18T14:51:21;-0.80;99.90
12971;DHT22;6550;48.650;8.774;2022-12-18T14:53:57;-0.80;99.90
12971;DHT22;6550;48.650;8.774;2022-12-18T14:56:31;-0.80;99.90
12971;DHT22;6550;48.650;8.774;2022-12-18T14:59:11;-0.80;99.90
12971;DHT22;6550;48.650;8.774;2022-12-18T15:04:41;-0.90;99.90
12971;DHT22;6550;48.650;8.774;2022-12-18T15:09:42;-1.00;99.90
12971;DHT22;6550;48.650;8.774;2022-12-18T15:12:29;-1.00;99.90
12971;DHT22;6550;48.650;8.774;2022-12-18T15:14:59;-1.10;99.90
12971;DHT22;6550;48.650;8.774;2022-12-18T15:17:26;-1.10;99.90
12971;DHT22;6550;48.650;8.774;2022-12-18T15:20:02;-1.20;99.90
12971;DHT22;6550;48.650;8.774;2022-12-18T15:22:34;-1.20;99.90
12971;DHT22;6550;48.650;8.774;2022-12-18T15:25:27;-1.30;99.90
12971;DHT22;6550;48.650;8.774;2022-12-18T15:27:59;-1.30;99.90
12971;DHT22;6550;48.650;8.774;2022-12-18T15:30:30;-1.30;99.90
12971;DHT22;6550;48.650;8.774;2022-12-18T15:33:23;-1.40;99.90
12971;DHT22;6550;48.650;8.774;2022-12-18T15:36:08;-1.40;99.90
12971;DHT22;6550;48.650;8.774;2022-12-18T15:38:35;-1.40;99.90
12971;DHT22;6550;48.650;8.774;2022-12-18T15:41:05;-1.50;99.90
12971;DHT22;6550;48.650;8.774;2022-12-18T15:43:40;-1.50;99.90
12971;DHT22;6550;48.650;8.774;2022-12-18T15:46:16;-1.50;99.90
12971;DHT22;6550;48.650;8.774;2022-12-18T15:48:47;-1.50;99.90
12971;DHT22;6550;48.650;8.774;2022-12-18T15:53:53;-1.60;99.90
12971;DHT22;6550;48.650;8.774;2022-12-18T15:56:23;-1.60;99.90
12971;DHT22;6550;48.650;8.774;2022-12-18T15:59:17;-1.70;99.90
12971;DHT22;6550;48.650;8.774;2022-12-18T16:01:48;-1.70;99.90
12971;DHT22;6550;48.650;8.774;2022-12-18T16:04:17;-1.70;99.90
12971;DHT22;6550;48.650;8.774;2022-12-18T16:06:47;-1.70;99.90
12971;DHT22;6550;48.650;8.774;2022-12-18T16:09:38;-1.80;99.90
12971;DHT22;6550;48.650;8.774;2022-12-18T16:12:06;-1.80;99.90
12971;DHT22;6550;48.650;8.774;2022-12-18T16:14:34;-1.80;99.90
12971;DHT22;6550;48.650;8.774;2022-12-18T16:17:03;-1.80;99.90
12971;DHT22;6550;48.650;8.774;2022-12-18T16:19:32;-1.80;99.90
12971;DHT22;6550;48.650;8.774;2022-12-18T16:21:59;-1.90;99.90
12971;DHT22;6550;48.650;8.774;2022-12-18T16:24:30;-1.90;99.90
12971;DHT22;6550;48.650;8.774;2022-12-18T16:26:58;-1.90;99.90
12971;DHT22;6550;48.650;8.774;2022-12-18T16:29:26;-2.00;99.90
12971;DHT22;6550;48.650;8.774;2022-12-18T16:31:58;-2.00;99.90
12971;DHT22;6550;48.650;8.774;2022-12-18T16:34:28;-2.00;99.90
12971;DHT22;6550;48.650;8.774;2022-12-18T16:37:03;-0.90;99.90
12971;DHT22;6550;48.650;8.774;2022-12-18T16:39:34;-2.00;99.90
12971;DHT22;6550;48.650;8.774;2022-12-18T16:42:22;-2.00;99.90
12971;DHT22;6550;48.650;8.774;2022-12-18T16:44:51;-2.10;99.90
12971;DHT22;6550;48.650;8.774;2022-12-18T16:47:18;-2.10;99.90
12971;DHT22;6550;48.650;8.774;2022-12-18T16:49:45;-2.10;99.90
12971;DHT22;6550;48.650;8.774;2022-12-18T16:52:13;-2.10;99.90
12971;DHT22;6550;48.650;8.774;2022-12-18T16:54:42;-2.10;99.90
12971;DHT22;6550;48.650;8.774;2022-12-18T16:57:15;-2.10;99.90
12971;DHT22;6550;48.650;8.774;2022-12-18T16:59:42;-2.10;99.90
12971;DHT22;6550;48.650;8.774;2022-12-18T17:02:22;-2.10;99.90
12971;DHT22;6550;48.650;8.774;2022-12-18T17:04:52;-2.10;99.90
12971;DHT22;6550;48.650;8.774;2022-12-18T17:07:20;-2.10;99.90
12971;DHT22;6550;48.650;8.774;2022-12-18T17:09:47;-2.10;99.90
12971;DHT22;6550;48.650;8.774;2022-12-18T17:12:16;-2.10;99.90
12971;DHT22;6550;48.650;8.774;2022-12-18T17:14:43;-2.10;99.90
12971;DHT22;6550;48.650;8.774;2022-12-18T17:17:12;-2.10;99.90
12971;DHT22;6550;48.650;8.774;2022-12-18T17:19:48;-2.20;99.90
12971;DHT22;6550;48.650;8.774;2022-12-18T17:22:18;-2.20;99.90
12971;DHT22;6550;48.650;8.774;2022-12-18T17:24:46;-2.20;99.90
12971;DHT22;6550;48.650;8.774;2022-12-18T17:27:15;-2.20;99.90
12971;DHT22;6550;48.650;8.774;2022-12-18T17:29:42;-2.20;99.90
12971;DHT22;6550;48.650;8.774;2022-12-18T17:32:15;-2.20;99.90
12971;DHT22;6550;48.650;8.774;2022-12-18T17:34:42;-2.20;99.90
12971;DHT22;6550;48.650;8.774;2022-12-18T17:37:09;-2.20;99.90
12971;DHT22;6550;48.650;8.774;2022-12-18T17:39:38;-2.10;99.90
12971;DHT22;6550;48.650;8.774;2022-12-18T17:42:05;-2.10;99.90
12971;DHT22;6550;48.650;8.774;2022-12-18T17:44:33;-2.10;99.90
12971;DHT22;6550;48.650;8.774;2022-12-18T17:47:01;-2.10;99.90
12971;DHT22;6550;48.650;8.774;2022-12-18T17:49:30;-2.10;99.90
12971;DHT22;6550;48.650;8.774;2022-12-18T17:51:57;-2.10;99.90
12971;DHT22;6550;48.650;8.774;2022-12-18T17:54:25;-2.10;99.90
12971;DHT22;6550;48.650;8.774;2022-12-18T17:56:55;-2.10;99.90
12971;DHT22;6550;48.650;8.774;2022-12-18T17:59:21;-2.10;99.90
12971;DHT22;6550;48.650;8.774;2022-12-18T18:01:48;-2.10;99.90
12971;DHT22;6550;48.650;8.774;2022-12-18T18:04:15;-2.10;99.90
12971;DHT22;6550;48.650;8.774;2022-12-18T18:06:42;-2.10;99.90
12971;DHT22;6550;48.650;8.774;2022-12-18T18:09:09;-2.10;99.90
12971;DHT22;6550;48.650;8.774;2022-12-18T18:11:43;-2.10;99.90